createdAt,value
2022-12-20T03:40:48.042Z,57.90
2022-12-20T03:41:32.869Z,79.83
2022-12-20T03:42:17.723Z,49.88
2022-12-20T03:43:03.899Z,49.88
2022-12-20T03:43:48.092Z,49.88
2022-12-20T03:44:35.497Z,49.88
2022-12-20T03:45:18.249Z,49.88
2022-12-20T03:46:03.872Z,49.88
2022-12-20T03:46:48.648Z,49.88
2022-12-20T03:47:33.220Z,62.84
2022-12-20T03:48:18.476Z,62.84
2022-12-20T03:49:03.853Z,62.84
2022-12-20T03:49:48.998Z,62.84
2022-12-20T03:50:36.416Z,62.84
2022-12-20T03:51:23.004Z,62.84
2022-12-20T03:52:08.406Z,62.84
2022-12-20T03:52:52.844Z,62.84
2022-12-20T03:53:36.733Z,62.84
2022-12-20T03:54:21.594Z,62.84
2022-12-20T03:55:06.548Z,62.84
2022-12-20T03:55:51.511Z,62.84
2022-12-20T03:56:35.254Z,62.84
2022-12-20T03:57:20.112Z,62.84
2022-12-20T03:58:05.545Z,62.84
2022-12-20T03:58:50.703Z,62.84
2022-12-20T03:59:34.326Z,62.84
2022-12-20T04:00:20.214Z,62.84
2022-12-20T04:01:05.391Z,62.84
2022-12-20T04:01:51.587Z,62.84
2022-12-20T04:02:34.541Z,62.84
2022-12-20T04:03:21.177Z,62.84
2022-12-20T04:04:05.595Z,62.84
2022-12-20T04:04:50.259Z,62.84
2022-12-20T04:05:35.075Z,62.84
2022-12-20T04:06:19.781Z,62.84
2022-12-20T04:07:05.825Z,62.84
2022-12-20T04:07:50.761Z,62.84
2022-12-20T04:08:34.904Z,62.84
2022-12-20T04:09:19.668Z,62.84
2022-12-20T04:10:04.808Z,62.84
2022-12-20T04:10:50.123Z,62.84
2022-12-20T04:11:35.328Z,62.84
2022-12-20T04:12:20.199Z,62.84
2022-12-20T04:13:05.043Z,62.84
2022-12-20T04:13:50.089Z,62.84
2022-12-20T04:14:35.199Z,62.84
2022-12-20T04:15:20.106Z,62.84
2022-12-20T04:16:05.482Z,62.84
2022-12-20T04:16:50.416Z,62.84
2022-12-20T04:17:36.116Z,62.84
2022-12-20T04:18:20.835Z,62.84
2022-12-20T04:19:05.493Z,62.84
2022-12-20T04:19:50.579Z,62.84
2022-12-20T04:20:35.700Z,62.84
2022-12-20T04:21:20.858Z,62.84
2022-12-20T04:22:06.480Z,62.84
2022-12-20T04:22:50.787Z,62.84
2022-12-20T04:23:35.960Z,62.84
2022-12-20T04:24:21.090Z,62.84
2022-12-20T04:25:05.952Z,62.84
2022-12-20T04:25:51.421Z,62.84
2022-12-20T04:26:36.155Z,62.84
2022-12-20T04:27:21.321Z,62.84
2022-12-20T04:28:06.956Z,62.84
2022-12-20T04:28:51.542Z,62.84
2022-12-20T04:29:37.002Z,62.84
2022-12-20T04:30:21.536Z,62.84
2022-12-20T04:31:06.713Z,62.84
2022-12-20T04:31:51.855Z,62.84
2022-12-20T04:32:36.910Z,62.84
2022-12-20T04:33:22.069Z,62.84
2022-12-20T04:34:07.125Z,62.84
2022-12-20T04:34:51.923Z,62.84
2022-12-20T04:35:37.050Z,62.84
2022-12-20T04:36:21.909Z,62.84
2022-12-20T04:37:07.042Z,62.84
2022-12-20T04:37:52.010Z,62.84
2022-12-20T04:38:37.677Z,62.84
2022-12-20T04:39:22.331Z,62.84
2022-12-20T04:40:07.390Z,62.84
2022-12-20T04:40:52.429Z,62.84
2022-12-20T04:41:37.611Z,62.84
2022-12-20T04:42:22.650Z,62.84
2022-12-20T04:43:07.477Z,62.84
2022-12-20T04:43:52.447Z,62.84
2022-12-20T04:44:37.613Z,62.84
2022-12-20T04:45:22.669Z,62.84
2022-12-20T04:46:07.543Z,62.84
2022-12-20T04:46:52.688Z,62.84
2022-12-20T04:47:37.834Z,62.84
2022-12-20T04:48:55.124Z,62.84
2022-12-20T04:49:07.636Z,62.84
2022-12-20T04:49:52.439Z,62.84
2022-12-20T04:50:37.559Z,62.84
2022-12-20T04:51:23.213Z,62.84
2022-12-20T04:52:07.841Z,62.84
2022-12-20T04:52:52.843Z,62.84
2022-12-20T04:53:38.399Z,62.84
2022-12-20T04:54:23.381Z,62.84
2022-12-20T04:55:08.299Z,62.84
2022-12-20T04:55:53.354Z,62.84
2022-12-20T04:56:38.406Z,62.84
2022-12-20T04:57:23.606Z,62.84
2022-12-20T04:58:08.767Z,62.84
2022-12-20T04:58:53.486Z,62.84
2022-12-20T04:59:38.527Z,62.84
2022-12-20T05:00:23.638Z,62.84
2022-12-20T05:01:08.456Z,62.84
2022-12-20T05:01:53.844Z,62.84
2022-12-20T05:02:39.255Z,62.84
2022-12-20T05:03:23.788Z,62.84
2022-12-20T05:04:08.597Z,62.84
2022-12-20T05:04:53.541Z,62.84
2022-12-20T05:05:38.570Z,62.84
2022-12-20T05:06:24.138Z,62.84
2022-12-20T05:07:09.452Z,62.84
2022-12-20T05:07:54.455Z,62.84
2022-12-20T05:08:39.520Z,62.84
2022-12-20T05:09:24.159Z,62.84
2022-12-20T05:10:09.407Z,62.84
2022-12-20T05:10:54.291Z,62.84
2022-12-20T05:11:39.478Z,62.84
2022-12-20T05:12:24.621Z,62.84
2022-12-20T05:13:09.632Z,62.84
2022-12-20T05:13:54.625Z,62.84
2022-12-20T05:14:39.761Z,62.84
2022-12-20T05:15:24.687Z,62.84
2022-12-20T05:16:09.840Z,62.84
2022-12-20T05:16:54.727Z,62.84
2022-12-20T05:17:39.679Z,62.84
2022-12-20T05:18:24.738Z,62.84
2022-12-20T05:19:09.795Z,62.84
2022-12-20T05:19:55.184Z,62.84
2022-12-20T05:20:45.759Z,62.84
2022-12-20T05:21:31.226Z,62.84
2022-12-20T05:22:10.155Z,62.84
2022-12-20T05:22:54.895Z,62.84
2022-12-20T05:23:39.934Z,62.84
2022-12-20T05:24:25.199Z,62.84
2022-12-20T05:25:09.981Z,62.84
2022-12-20T05:25:55.197Z,62.84
2022-12-20T05:26:40.846Z,62.84
2022-12-20T05:27:26.153Z,62.84
2022-12-20T05:28:11.405Z,62.84
2022-12-20T05:28:56.485Z,62.84
2022-12-20T05:29:42.330Z,62.84
2022-12-20T05:30:26.603Z,62.84
2022-12-20T05:31:11.461Z,62.84
2022-12-20T05:31:56.384Z,62.84
2022-12-20T05:32:40.840Z,62.84
2022-12-20T05:33:29.013Z,62.84
2022-12-20T05:34:11.334Z,62.84
2022-12-20T05:34:56.384Z,62.84
2022-12-20T05:35:41.455Z,62.84
2022-12-20T05:36:26.202Z,62.84
2022-12-20T05:37:10.742Z,62.84
2022-12-20T05:37:55.679Z,62.84
2022-12-20T05:38:41.240Z,62.84
2022-12-20T05:39:25.812Z,62.84
2022-12-20T05:40:10.876Z,62.84
2022-12-20T05:40:55.921Z,62.84
2022-12-20T05:41:41.187Z,62.84
2022-12-20T05:42:25.923Z,62.84
2022-12-20T05:43:11.131Z,62.84
2022-12-20T05:43:56.251Z,62.84
2022-12-20T05:44:41.225Z,62.84
2022-12-20T05:45:26.209Z,62.84
2022-12-20T05:46:11.413Z,62.84
2022-12-20T05:46:56.445Z,62.84
2022-12-20T05:47:41.578Z,62.84
2022-12-20T05:48:26.490Z,62.84
2022-12-20T05:49:11.643Z,62.84
2022-12-20T05:49:56.602Z,62.84
2022-12-20T05:50:41.785Z,62.84
2022-12-20T05:51:26.813Z,62.84
2022-12-20T05:52:11.915Z,62.84
2022-12-20T05:52:56.934Z,62.84
2022-12-20T05:53:41.896Z,62.84
2022-12-20T05:54:27.239Z,62.84
2022-12-20T05:55:12.932Z,62.84
2022-12-20T05:55:57.462Z,62.84
2022-12-20T05:56:42.413Z,62.84
2022-12-20T05:57:27.599Z,62.84
2022-12-20T05:58:12.346Z,62.84
2022-12-20T05:58:57.609Z,62.84
2022-12-20T05:59:42.681Z,62.84
2022-12-20T06:00:27.719Z,62.84
2022-12-20T06:01:21.948Z,0.00
2022-12-20T06:02:07.041Z,0.00
2022-12-20T06:02:51.592Z,0.00
2022-12-20T06:03:36.973Z,0.00
2022-12-20T06:04:21.829Z,0.00
2022-12-20T06:05:06.843Z,0.00
2022-12-20T06:05:51.800Z,0.00
2022-12-20T06:06:36.951Z,0.00
2022-12-20T06:07:21.846Z,0.00
2022-12-20T06:08:06.959Z,0.00
2022-12-20T06:08:52.192Z,0.00
2022-12-20T06:09:37.346Z,0.00
2022-12-20T06:10:22.186Z,0.00
2022-12-20T06:11:07.389Z,0.00
2022-12-20T06:11:52.677Z,0.00
2022-12-20T06:14:17.043Z,94.83
2022-12-20T06:15:01.596Z,72.87
2022-12-20T06:15:46.558Z,111.80
2022-12-20T06:16:31.608Z,132.76
2022-12-20T06:17:16.616Z,131.76
2022-12-20T06:18:01.401Z,140.75
2022-12-20T06:18:47.214Z,152.73
2022-12-20T06:19:31.721Z,138.75
2022-12-20T06:20:16.473Z,138.75
2022-12-20T06:21:01.515Z,150.81
2022-12-20T06:21:46.690Z,143.78
2022-12-20T06:22:31.639Z,145.78
2022-12-20T06:23:16.814Z,132.76
2022-12-20T06:24:01.783Z,145.74
2022-12-20T06:24:48.735Z,127.77
2022-12-20T06:25:31.766Z,124.74
2022-12-20T06:26:16.744Z,138.71
2022-12-20T06:27:01.682Z,151.73
2022-12-20T06:27:47.747Z,153.73
2022-12-20T06:28:31.680Z,151.73
2022-12-20T06:29:17.176Z,156.72
2022-12-20T06:30:02.303Z,157.72
2022-12-20T06:30:47.414Z,157.72
2022-12-20T06:31:32.001Z,161.71
2022-12-20T06:32:16.960Z,168.70
2022-12-20T06:33:02.234Z,169.70
2022-12-20T06:33:47.074Z,172.69
2022-12-20T06:34:32.235Z,172.69
2022-12-20T06:35:17.186Z,171.69
2022-12-20T06:36:02.270Z,171.69
2022-12-20T06:36:47.615Z,172.64
2022-12-20T06:37:32.332Z,173.69
2022-12-20T06:38:17.408Z,176.68
2022-12-20T06:39:07.638Z,167.65
2022-12-20T06:39:47.422Z,171.74
2022-12-20T06:40:32.800Z,172.74
2022-12-20T06:41:17.635Z,170.70
2022-12-20T06:42:02.797Z,177.68
2022-12-20T06:42:47.855Z,173.69
2022-12-20T06:43:32.966Z,156.67
2022-12-20T06:44:17.662Z,150.73
2022-12-20T06:45:03.042Z,152.73
2022-12-20T06:45:48.325Z,140.75
2022-12-20T06:46:33.201Z,153.73
2022-12-20T06:47:18.093Z,153.77
2022-12-20T06:48:03.041Z,161.76
2022-12-20T06:48:48.520Z,172.74
2022-12-20T06:49:33.698Z,170.74
2022-12-20T06:50:18.743Z,173.74
2022-12-20T06:51:03.733Z,187.72
2022-12-20T06:51:48.749Z,187.72
2022-12-20T06:52:33.516Z,177.73
2022-12-20T06:53:18.679Z,176.73
2022-12-20T06:54:03.708Z,176.73
2022-12-20T06:54:48.656Z,181.73
2022-12-20T06:55:33.840Z,176.73
2022-12-20T06:56:19.082Z,177.63
2022-12-20T06:57:04.047Z,177.73
2022-12-20T06:57:49.283Z,173.74
2022-12-20T06:58:34.050Z,179.73
2022-12-20T07:00:55.884Z,160.80
2022-12-20T07:01:40.107Z,160.80
2022-12-20T07:02:27.374Z,160.80
2022-12-20T07:03:10.556Z,160.80
2022-12-20T07:03:55.421Z,160.80
2022-12-20T07:04:40.419Z,160.80
2022-12-20T07:05:25.355Z,160.80
2022-12-20T07:06:10.450Z,160.80
2022-12-20T07:06:55.777Z,160.80
2022-12-20T07:07:44.791Z,160.80
2022-12-20T07:08:25.342Z,160.80
2022-12-20T07:09:10.976Z,160.80
2022-12-20T07:09:55.309Z,160.80
2022-12-20T07:10:40.466Z,160.80
2022-12-20T07:11:25.727Z,160.80
2022-12-20T07:12:10.808Z,160.80
2022-12-20T07:12:55.816Z,160.80
2022-12-20T07:13:40.809Z,160.80
2022-12-20T07:14:26.067Z,160.80
2022-12-20T07:15:10.882Z,160.80
2022-12-20T07:15:55.933Z,160.80
2022-12-20T07:16:41.278Z,160.80
2022-12-20T07:17:26.373Z,160.80
2022-12-20T07:18:10.902Z,160.80
2022-12-20T07:18:56.593Z,160.80
2022-12-20T07:19:45.621Z,160.80
2022-12-20T07:20:26.186Z,160.80
2022-12-20T07:21:11.261Z,160.80
2022-12-20T07:21:56.416Z,160.80
2022-12-20T07:22:41.557Z,160.80
2022-12-20T07:23:26.500Z,160.80
2022-12-20T07:24:11.900Z,160.80
2022-12-20T07:24:56.739Z,160.80
2022-12-20T07:25:41.767Z,160.80
2022-12-20T07:26:26.836Z,160.80
2022-12-20T07:27:12.106Z,160.80
2022-12-20T07:27:56.773Z,160.80
2022-12-20T07:28:41.688Z,160.80
2022-12-20T07:29:26.755Z,160.80
2022-12-20T07:30:12.750Z,160.80
2022-12-20T07:30:56.468Z,160.80
2022-12-20T07:31:42.305Z,160.80
2022-12-20T07:32:26.978Z,160.80
2022-12-20T07:33:12.486Z,160.80
2022-12-20T07:33:57.565Z,160.80
2022-12-20T07:34:42.791Z,160.80
2022-12-20T07:35:27.402Z,160.80
2022-12-20T07:36:12.979Z,160.80
2022-12-20T07:36:57.540Z,160.80
2022-12-20T07:37:42.469Z,160.80
2022-12-20T07:38:27.426Z,160.80
2022-12-20T07:39:12.700Z,160.80
2022-12-20T07:39:57.655Z,160.80
2022-12-20T07:40:42.650Z,160.80
2022-12-20T07:41:27.822Z,160.80
2022-12-20T07:42:14.016Z,160.80
2022-12-20T07:42:58.123Z,160.80
2022-12-20T07:43:43.037Z,160.80
2022-12-20T07:44:27.666Z,160.80
2022-12-20T07:45:13.017Z,160.80
2022-12-20T07:45:57.960Z,160.80
2022-12-20T07:46:43.252Z,160.80
2022-12-20T07:47:27.999Z,160.80
2022-12-20T07:48:16.269Z,160.80
2022-12-20T07:48:58.285Z,160.80
2022-12-20T07:49:42.984Z,160.80
2022-12-20T07:50:28.424Z,160.80
2022-12-20T07:51:13.499Z,160.80
2022-12-20T07:51:58.545Z,160.80
2022-12-20T07:52:43.352Z,160.80
2022-12-20T07:53:28.354Z,160.80
2022-12-20T07:54:13.605Z,160.80
2022-12-20T07:54:58.693Z,160.80
2022-12-20T07:55:43.961Z,160.80
2022-12-20T07:56:28.993Z,160.80
2022-12-20T07:57:13.953Z,160.80
2022-12-20T07:57:58.716Z,160.80
2022-12-20T07:58:44.050Z,160.80
2022-12-20T07:59:29.219Z,160.80
2022-12-20T08:00:14.294Z,160.80
2022-12-20T08:00:59.184Z,160.80
2022-12-20T08:01:44.394Z,160.80
2022-12-20T08:02:29.382Z,160.80
2022-12-20T08:03:14.906Z,160.80
2022-12-20T08:03:59.520Z,160.80
2022-12-20T08:04:44.510Z,160.80
2022-12-20T08:05:29.374Z,160.80
2022-12-20T08:06:14.521Z,160.80
2022-12-20T08:06:59.610Z,160.80
2022-12-20T08:07:44.832Z,160.80
2022-12-20T08:08:29.988Z,160.80
2022-12-20T08:09:14.809Z,160.80
2022-12-20T08:10:00.070Z,160.80
2022-12-20T08:10:45.091Z,160.80
2022-12-20T08:11:30.012Z,160.80
2022-12-20T08:12:16.295Z,160.80
2022-12-20T08:13:00.261Z,160.80
2022-12-20T08:13:46.864Z,160.80
2022-12-20T08:14:30.341Z,160.80
2022-12-20T08:15:15.936Z,160.80
2022-12-20T08:16:00.285Z,160.80
2022-12-20T08:16:45.560Z,160.80
2022-12-20T08:17:30.765Z,160.80
2022-12-20T08:18:15.730Z,160.80
2022-12-20T08:19:00.604Z,160.80
2022-12-20T08:19:46.055Z,160.80
2022-12-20T08:20:30.997Z,160.80
2022-12-20T08:21:16.261Z,160.80
2022-12-20T08:22:00.620Z,160.80
2022-12-20T08:22:45.853Z,160.80
2022-12-20T08:23:30.913Z,160.80
2022-12-20T08:24:16.208Z,160.80
2022-12-20T08:25:01.251Z,160.80
2022-12-20T08:25:45.985Z,160.80
2022-12-20T08:26:31.151Z,160.80
2022-12-20T08:27:16.295Z,160.80
2022-12-20T08:28:01.149Z,160.80
2022-12-20T08:28:46.294Z,160.80
2022-12-20T08:29:31.399Z,160.80
2022-12-20T08:30:16.340Z,160.80
2022-12-20T08:31:01.575Z,160.80
2022-12-20T08:31:50.024Z,160.80
2022-12-20T08:32:31.629Z,160.80
2022-12-20T08:33:16.704Z,160.80
2022-12-20T08:34:01.726Z,160.80
2022-12-20T08:34:46.963Z,160.80
2022-12-20T08:35:31.695Z,160.80
2022-12-20T08:36:16.981Z,160.80
2022-12-20T08:37:02.057Z,160.80
2022-12-20T08:37:47.027Z,160.80
2022-12-20T08:38:32.049Z,160.80
2022-12-20T08:39:17.406Z,160.80
2022-12-20T08:40:02.274Z,160.80
2022-12-20T08:40:47.338Z,160.80
2022-12-20T08:41:32.367Z,160.80
2022-12-20T08:42:17.432Z,160.80
2022-12-20T08:43:08.219Z,160.80
2022-12-20T08:43:47.541Z,160.80
2022-12-20T08:44:32.518Z,160.80
2022-12-20T08:45:17.489Z,160.80
2022-12-20T08:46:02.549Z,160.80
2022-12-20T08:46:47.864Z,160.80
2022-12-20T08:47:32.613Z,160.80
2022-12-20T08:48:17.798Z,160.80
2022-12-20T10:40:34.313Z,153.09
2022-12-20T10:41:23.022Z,156.07
2022-12-20T10:41:54.616Z,165.26
2022-12-20T10:42:39.872Z,165.26
2022-12-20T10:43:25.179Z,165.26
2022-12-20T10:44:09.669Z,152.10
2022-12-20T10:44:55.573Z,152.10
2022-12-20T10:45:41.430Z,152.10
2022-12-20T10:46:25.486Z,152.10
2022-12-20T10:47:10.473Z,152.10
2022-12-20T10:47:55.778Z,152.10
2022-12-20T10:48:40.597Z,152.10
2022-12-20T10:49:25.710Z,152.10
2022-12-20T10:50:11.444Z,152.10
2022-12-20T10:50:55.811Z,152.10
2022-12-20T10:51:40.758Z,152.10
2022-12-20T10:52:25.998Z,152.10
2022-12-20T10:53:11.041Z,152.10
2022-12-20T10:53:58.209Z,152.10
2022-12-20T10:54:43.707Z,152.10
2022-12-20T10:55:28.924Z,152.10
2022-12-20T10:56:12.129Z,152.10
2022-12-20T10:56:57.722Z,152.10
2022-12-20T10:57:42.041Z,152.10
2022-12-20T10:58:29.855Z,152.10
2022-12-20T10:59:13.670Z,152.10
2022-12-20T10:59:56.901Z,152.10
2022-12-20T11:00:42.982Z,152.10
2022-12-20T11:01:28.420Z,152.10
2022-12-20T11:02:12.887Z,152.10
2022-12-20T11:02:57.416Z,152.10
2022-12-20T11:03:42.279Z,152.10
2022-12-20T11:04:27.691Z,152.10
2022-12-20T11:05:12.623Z,152.10
2022-12-20T11:05:57.903Z,152.10
2022-12-20T11:06:42.907Z,152.10
2022-12-20T11:07:27.455Z,152.10
2022-12-20T11:08:39.305Z,152.10
2022-12-20T11:09:00.793Z,152.10
2022-12-20T11:09:41.803Z,152.10
2022-12-20T11:10:26.860Z,152.10
2022-12-20T11:11:12.244Z,152.10
2022-12-20T11:11:56.933Z,152.10
2022-12-20T11:12:41.745Z,152.10
2022-12-20T11:13:27.116Z,152.10
2022-12-20T11:14:12.275Z,152.10
2022-12-20T11:14:57.202Z,152.10
2022-12-20T11:15:42.548Z,152.10
2022-12-20T11:16:27.451Z,152.10
2022-12-20T11:29:20.669Z,0.00
2022-12-20T12:27:44.192Z,207.18
2022-12-20T23:48:34.846Z,115.79
2022-12-20T23:49:20.155Z,115.79
2022-12-20T23:50:04.818Z,179.62
2022-12-20T23:50:49.924Z,162.66
2022-12-20T23:51:34.766Z,179.62
2022-12-20T23:52:23.457Z,159.66
2022-12-20T23:53:05.707Z,159.66
2022-12-20T23:53:50.466Z,159.66
2022-12-20T23:54:35.453Z,159.66
2022-12-20T23:55:21.925Z,159.66
2022-12-20T23:56:08.894Z,159.66
2022-12-20T23:56:52.002Z,159.66
2022-12-20T23:57:37.372Z,159.66
2022-12-20T23:58:22.513Z,159.66
2022-12-20T23:59:06.509Z,159.66
2022-12-20T23:59:52.071Z,159.66
